sensor_id;sensor_type;location;lat;lon;timestamp;temperature;humidity
9033;DHT22;4551;53.164;8.210;2023-08-20T00:00:43;18.60;99.90
9033;DHT22;4551;53.164;8.210;2023-08-20T00:03:12;18.60;99.90
9033;DHT22;4551;53.164;8.210;2023-08-20T00:05:41;18.50;99.90
9033;DHT22;4551;53.164;8.210;2023-08-20T00:08:09;18.50;99.90
9033;DHT22;4551;53.164;8.210;2023-08-20T00:10:37;18.50;99.90
9033;DHT22;4551;53.164;8.210;2023-08-20T00:13:05;18.50;99.90
9033;DHT22;4551;53.164;8.210;2023-08-20T00:15:33;18.40;99.90
9033;DHT22;4551;53.164;8.210;2023-08-20T00:18:02;18.40;99.90
9033;DHT22;4551;53.164;8.210;2023-08-20T00:20:32;18.30;99.90
9033;DHT22;4551;53.164;8.210;2023-08-20T00:23:01;18.30;99.90
9033;DHT22;4551;53.164;8.210;2023-08-20T00:25:29;18.30;99.90
9033;DHT22;4551;53.164;8.210;2023-08-20T00:27:58;18.30;99.90
9033;DHT22;4551;53.164;8.210;2023-08-20T00:30:25;18.30;99.90
9033;DHT22;4551;53.164;8.210;2023-08-20T00:32:54;18.30;99.90
9033;DHT22;4551;53.164;8.210;2023-08-20T00:35:22;18.20;99.90
9033;DHT22;4551;53.164;8.210;2023-08-20T00:37:52;18.20;99.90
9033;DHT22;4551;53.164;8.210;2023-08-20T00:40:20;18.20;99.90
9033;DHT22;4551;53.164;8.210;2023-08-20T00:42:48;18.20;99.90
9033;DHT22;4551;53.164;8.210;2023-08-20T00:45:16;18.20;99.90
9033;DHT22;4551;53.164;8.210;2023-08-20T00:47:45;18.10;99.90
9033;DHT22;4551;53.164;8.210;2023-08-20T00:50:13;18.10;99.90
9033;DHT22;4551;53.164;8.210;2023-08-20T00:52:41;18.10;99.90
9033;DHT22;4551;53.164;8.210;2023-08-20T00:55:11;18.00;99.90
9033;DHT22;4551;53.164;8.210;2023-08-20T00:57:40;18.00;99.90
9033;DHT22;4551;53.164;8.210;2023-08-20T01:00:08;18.00;99.90
9033;DHT22;4551;53.164;8.210;2023-08-20T01:02:38;18.00;99.90
9033;DHT22;4551;53.164;8.210;2023-08-20T01:05:06;17.90;99.90
9033;DHT22;4551;53.164;8.210;2023-08-20T01:07:38;17.90;99.90
9033;DHT22;4551;53.164;8.210;2023-08-20T01:10:08;17.90;99.90
9033;DHT22;4551;53.164;8.210;2023-08-20T01:12:38;17.90;99.90
9033;DHT22;4551;53.164;8.210;2023-08-20T01:15:06;17.90;99.90
9033;DHT22;4551;53.164;8.210;2023-08-20T01:17:40;17.90;99.90
9033;DHT22;4551;53.164;8.210;2023-08-20T01:20:09;17.80;99.90
9033;DHT22;4551;53.164;8.210;2023-08-20T01:22:44;17.80;99.90
9033;DHT22;4551;53.164;8.210;2023-08-20T01:25:18;17.70;99.90
9033;DHT22;4551;53.164;8.210;2023-08-20T01:27:56;17.70;99.90
9033;DHT22;4551;53.164;8.210;2023-08-20T01:30:27;17.70;99.90
9033;DHT22;4551;53.164;8.210;2023-08-20T01:32:55;17.70;99.90
9033;DHT22;4551;53.164;8.210;2023-08-20T01:35:24;17.60;99.90
9033;DHT22;4551;53.164;8.210;2023-08-20T01:37:52;17.60;99.90
9033;DHT22;4551;53.164;8.210;2023-08-20T01:40:20;17.60;99.90
9033;DHT22;4551;53.164;8.210;2023-08-20T01:42:48;17.50;99.90
9033;DHT22;4551;53.164;8.210;2023-08-20T01:45:16;17.50;99.90
9033;DHT22;4551;53.164;8.210;2023-08-20T01:47:46;17.40;99.90
9033;DHT22;4551;53.164;8.210;2023-08-20T01:50:14;17.50;99.90
9033;DHT22;4551;53.164;8.210;2023-08-20T01:52:42;17.40;99.90
9033;DHT22;4551;53.164;8.210;2023-08-20T01:55:10;17.40;99.90
9033;DHT22;4551;53.164;8.210;2023-08-20T01:57:38;17.40;99.90
9033;DHT22;4551;53.164;8.210;2023-08-20T02:00:07;17.40;99.90
9033;DHT22;4551;53.164;8.210;2023-08-20T02:02:36;17.40;99.90
9033;DHT22;4551;53.164;8.210;2023-08-20T02:05:05;17.30;99.90
9033;DHT22;4551;53.164;8.210;2023-08-20T02:07:34;17.30;99.90
9033;DHT22;4551;53.164;8.210;2023-08-20T02:10:02;17.30;99.90
9033;DHT22;4551;53.164;8.210;2023-08-20T02:12:30;17.30;99.90
9033;DHT22;4551;53.164;8.210;2023-08-20T02:14:58;17.30;99.90
9033;DHT22;4551;53.164;8.210;2023-08-20T02:17:26;17.20;99.90
9033;DHT22;4551;53.164;8.210;2023-08-20T02:19:55;17.20;99.90
9033;DHT22;4551;53.164;8.210;2023-08-20T02:22:24;17.20;99.90
9033;DHT22;4551;53.164;8.210;2023-08-20T02:24:52;17.20;99.90
9033;DHT22;4551;53.164;8.210;2023-08-20T02:27:20;17.10;99.90
9033;DHT22;4551;53.164;8.210;2023-08-20T02:29:48;17.10;99.90
9033;DHT22;4551;53.164;8.210;2023-08-20T02:32:16;17.10;99.90
9033;DHT22;4551;53.164;8.210;2023-08-20T02:34:48;17.10;99.90
9033;DHT22;4551;53.164;8.210;2023-08-20T02:37:16;17.10;99.90
9033;DHT22;4551;53.164;8.210;2023-08-20T02:39:45;17.00;99.90
9033;DHT22;4551;53.164;8.210;2023-08-20T02:42:15;17.00;99.90
9033;DHT22;4551;53.164;8.210;2023-08-20T02:44:43;17.00;99.90
9033;DHT22;4551;53.164;8.210;2023-08-20T02:47:14;17.00;99.90
9033;DHT22;4551;53.164;8.210;2023-08-20T02:49:42;17.00;99.90
9033;DHT22;4551;53.164;8.210;2023-08-20T02:52:10;16.90;99.90
9033;DHT22;4551;53.164;8.210;2023-08-20T02:54:38;16.90;99.90
9033;DHT22;4551;53.164;8.210;2023-08-20T02:57:07;16.80;99.90
9033;DHT22;4551;53.164;8.210;2023-08-20T02:59:35;16.90;99.90
9033;DHT22;4551;53.164;8.210;2023-08-20T03:02:03;16.80;99.90
9033;DHT22;4551;53.164;8.210;2023-08-20T03:04:31;16.90;99.90
9033;DHT22;4551;53.164;8.210;2023-08-20T03:06:59;16.80;99.90
9033;DHT22;4551;53.164;8.210;2023-08-20T03:09:27;16.80;99.90
9033;DHT22;4551;53.164;8.210;2023-08-20T03:11:55;16.80;99.90
9033;DHT22;4551;53.164;8.210;2023-08-20T03:14:25;16.80;99.90
9033;DHT22;4551;53.164;8.210;2023-08-20T03:16:54;16.70;99.90
9033;DHT22;4551;53.164;8.210;2023-08-20T03:19:22;16.80;99.90
9033;DHT22;4551;53.164;8.210;2023-08-20T03:21:50;16.70;99.90
9033;DHT22;4551;53.164;8.210;2023-08-20T03:24:18;16.70;99.90
9033;DHT22;4551;53.164;8.210;2023-08-20T03:26:46;16.70;99.90
9033;DHT22;4551;53.164;8.210;2023-08-20T03:29:14;16.70;99.90
9033;DHT22;4551;53.164;8.210;2023-08-20T03:31:44;16.70;99.90
9033;DHT22;4551;53.164;8.210;2023-08-20T03:34:12;16.60;99.90
9033;DHT22;4551;53.164;8.210;2023-08-20T03:36:40;16.60;99.90
9033;DHT22;4551;53.164;8.210;2023-08-20T03:39:08;16.60;99.90
9033;DHT22;4551;53.164;8.210;2023-08-20T03:41:36;16.60;99.90
9033;DHT22;4551;53.164;8.210;2023-08-20T03:44:04;16.60;99.90
9033;DHT22;4551;53.164;8.210;2023-08-20T03:46:32;16.60;99.90
9033;DHT22;4551;53.164;8.210;2023-08-20T03:49:02;16.60;99.90
9033;DHT22;4551;53.164;8.210;2023-08-20T03:51:30;16.60;99.90
9033;DHT22;4551;53.164;8.210;2023-08-20T03:53:58;16.50;99.90
9033;DHT22;4551;53.164;8.210;2023-08-20T03:56:26;16.60;99.90
9033;DHT22;4551;53.164;8.210;2023-08-20T03:58:54;16.60;99.90
9033;DHT22;4551;53.164;8.210;2023-08-20T04:01:22;16.50;99.90
9033;DHT22;4551;53.164;8.210;2023-08-20T04:03:50;16.50;99.90
9033;DHT22;4551;53.164;8.210;2023-08-20T04:06:20;16.50;99.90
9033;DHT22;4551;53.164;8.210;2023-08-20T04:08:48;16.50;99.90
9033;DHT22;4551;53.164;8.210;2023-08-20T04:11:16;16.50;99.90
9033;DHT22;4551;53.164;8.210;2023-08-20T04:13:44;16.50;99.90
9033;DHT22;4551;53.164;8.210;2023-08-20T04:16:12;16.50;99.90
9033;DHT22;4551;53.164;8.210;2023-08-20T04:18:40;16.50;99.90
9033;DHT22;4551;53.164;8.210;2023-08-20T04:21:08;16.50;99.90
9033;DHT22;4551;53.164;8.210;2023-08-20T04:23:38;16.50;99.90
9033;DHT22;4551;53.164;8.210;2023-08-20T04:26:20;16.50;99.90
9033;DHT22;4551;53.164;8.210;2023-08-20T04:28:48;16.50;99.90
9033;DHT22;4551;53.164;8.210;2023-08-20T04:31:16;16.50;99.90
9033;DHT22;4551;53.164;8.210;2023-08-20T04:33:45;16.60;99.90
9033;DHT22;4551;53.164;8.210;2023-08-20T04:36:13;16.50;99.90
9033;DHT22;4551;53.164;8.210;2023-08-20T04:38:42;16.60;99.90
9033;DHT22;4551;53.164;8.210;2023-08-20T04:41:10;16.50;99.90
9033;DHT22;4551;53.164;8.210;2023-08-20T04:43:38;16.50;99.90
9033;DHT22;4551;53.164;8.210;2023-08-20T04:46:06;16.60;99.90
9033;DHT22;4551;53.164;8.210;2023-08-20T04:48:35;16.50;99.90
9033;DHT22;4551;53.164;8.210;2023-08-20T04:51:03;16.50;99.90
9033;DHT22;4551;53.164;8.210;2023-08-20T04:53:31;16.50;99.90
9033;DHT22;4551;53.164;8.210;2023-08-20T04:56:00;16.50;99.90
9033;DHT22;4551;53.164;8.210;2023-08-20T04:58:29;16.50;99.90
9033;DHT22;4551;53.164;8.210;2023-08-20T05:00:57;16.50;99.90
9033;DHT22;4551;53.164;8.210;2023-08-20T05:03:25;16.50;99.90
9033;DHT22;4551;53.164;8.210;2023-08-20T05:05:53;16.50;99.90
9033;DHT22;4551;53.164;8.210;2023-08-20T05:08:21;16.50;99.90
9033;DHT22;4551;53.164;8.210;2023-08-20T05:10:49;16.50;99.90
9033;DHT22;4551;53.164;8.210;2023-08-20T05:13:19;16.50;99.90
9033;DHT22;4551;53.164;8.210;2023-08-20T05:15:47;16.60;99.90
9033;DHT22;4551;53.164;8.210;2023-08-20T05:18:15;16.60;99.90
9033;DHT22;4551;53.164;8.210;2023-08-20T05:20:44;16.60;99.90
9033;DHT22;4551;53.164;8.210;2023-08-20T05:23:12;16.70;99.90
9033;DHT22;4551;53.164;8.210;2023-08-20T05:25:40;16.70;99.90
9033;DHT22;4551;53.164;8.210;2023-08-20T05:28:08;16.70;99.90
9033;DHT22;4551;53.164;8.210;2023-08-20T05:30:37;16.70;99.90
9033;DHT22;4551;53.164;8.210;2023-08-20T05:33:05;16.70;99.90
9033;DHT22;4551;53.164;8.210;2023-08-20T05:35:33;16.70;99.90
9033;DHT22;4551;53.164;8.210;2023-08-20T05:38:02;16.70;99.90
9033;DHT22;4551;53.164;8.210;2023-08-20T05:40:31;16.80;99.90
9033;DHT22;4551;53.164;8.210;2023-08-20T05:42:59;16.80;99.90
9033;DHT22;4551;53.164;8.210;2023-08-20T05:45:27;16.80;99.90
9033;DHT22;4551;53.164;8.210;2023-08-20T05:47:56;16.90;99.90
9033;DHT22;4551;53.164;8.210;2023-08-20T05:50:24;16.90;99.90
9033;DHT22;4551;53.164;8.210;2023-08-20T05:52:53;17.00;99.90
9033;DHT22;4551;53.164;8.210;2023-08-20T05:55:21;16.90;99.90
9033;DHT22;4551;53.164;8.210;2023-08-20T05:57:49;17.00;99.90
9033;DHT22;4551;53.164;8.210;2023-08-20T06:00:17;17.00;99.90
9033;DHT22;4551;53.164;8.210;2023-08-20T06:02:45;17.00;99.90
9033;DHT22;4551;53.164;8.210;2023-08-20T06:05:17;17.10;99.90
9033;DHT22;4551;53.164;8.210;2023-08-20T06:07:45;17.10;99.90
9033;DHT22;4551;53.164;8.210;2023-08-20T06:10:13;17.10;99.90
9033;DHT22;4551;53.164;8.210;2023-08-20T06:12:41;17.10;99.90
9033;DHT22;4551;53.164;8.210;2023-08-20T06:15:10;17.20;99.90
9033;DHT22;4551;53.164;8.210;2023-08-20T06:17:38;17.20;99.90
9033;DHT22;4551;53.164;8.210;2023-08-20T06:20:07;17.20;99.90
9033;DHT22;4551;53.164;8.210;2023-08-20T06:22:37;17.30;99.90
9033;DHT22;4551;53.164;8.210;2023-08-20T06:25:05;17.40;99.90
9033;DHT22;4551;53.164;8.210;2023-08-20T06:27:33;17.40;99.90
9033;DHT22;4551;53.164;8.210;2023-08-20T06:30:04;17.40;99.90
9033;DHT22;4551;53.164;8.210;2023-08-20T06:32:32;17.50;99.90
9033;DHT22;4551;53.164;8.210;2023-08-20T06:35:14;17.50;99.90
9033;DHT22;4551;53.164;8.210;2023-08-20T06:37:44;17.50;99.90
9033;DHT22;4551;53.164;8.210;2023-08-20T06:40:12;17.60;99.90
9033;DHT22;4551;53.164;8.210;2023-08-20T06:42:40;17.60;99.90
9033;DHT22;4551;53.164;8.210;2023-08-20T06:45:09;17.70;99.90
9033;DHT22;4551;53.164;8.210;2023-08-20T06:47:37;17.80;99.90
9033;DHT22;4551;53.164;8.210;2023-08-20T06:50:05;17.80;99.90
9033;DHT22;4551;53.164;8.210;2023-08-20T06:52:34;17.80;99.90
9033;DHT22;4551;53.164;8.210;2023-08-20T06:55:03;17.90;99.90
9033;DHT22;4551;53.164;8.210;2023-08-20T06:57:31;18.00;99.90
9033;DHT22;4551;53.164;8.210;2023-08-20T07:00:00;18.00;99.90
9033;DHT22;4551;53.164;8.210;2023-08-20T07:02:28;18.10;99.90
9033;DHT22;4551;53.164;8.210;2023-08-20T07:04:57;18.10;99.90
9033;DHT22;4551;53.164;8.210;2023-08-20T07:07:25;18.10;99.90
9033;DHT22;4551;53.164;8.210;2023-08-20T07:09:53;18.20;99.90
9033;DHT22;4551;53.164;8.210;2023-08-20T07:12:22;18.30;99.90
9033;DHT22;4551;53.164;8.210;2023-08-20T07:14:50;18.30;99.90
9033;DHT22;4551;53.164;8.210;2023-08-20T07:17:18;18.40;99.90
9033;DHT22;4551;53.164;8.210;2023-08-20T07:19:46;18.50;99.90
9033;DHT22;4551;53.164;8.210;2023-08-20T07:22:14;18.60;99.90
9033;DHT22;4551;53.164;8.210;2023-08-20T07:24:42;18.60;99.90
9033;DHT22;4551;53.164;8.210;2023-08-20T07:27:10;18.70;99.90
9033;DHT22;4551;53.164;8.210;2023-08-20T07:29:41;18.80;99.90
9033;DHT22;4551;53.164;8.210;2023-08-20T07:32:09;18.80;99.90
9033;DHT22;4551;53.164;8.210;2023-08-20T07:34:37;18.80;99.90
9033;DHT22;4551;53.164;8.210;2023-08-20T07:37:05;18.90;99.90
9033;DHT22;4551;53.164;8.210;2023-08-20T07:39:33;19.00;99.90
9033;DHT22;4551;53.164;8.210;2023-08-20T07:42:01;19.00;99.90
9033;DHT22;4551;53.164;8.210;2023-08-20T07:44:29;19.10;99.90
9033;DHT22;4551;53.164;8.210;2023-08-20T07:46:59;19.10;99.90
9033;DHT22;4551;53.164;8.210;2023-08-20T07:49:27;19.10;99.90
9033;DHT22;4551;53.164;8.210;2023-08-20T07:51:55;19.20;99.90
9033;DHT22;4551;53.164;8.210;2023-08-20T07:54:23;19.20;99.90
9033;DHT22;4551;53.164;8.210;2023-08-20T07:57:05;19.30;99.90
9033;DHT22;4551;53.164;8.210;2023-08-20T07:59:33;19.40;99.90
9033;DHT22;4551;53.164;8.210;2023-08-20T08:02:02;19.40;99.90
9033;DHT22;4551;53.164;8.210;2023-08-20T08:04:30;19.50;99.90
9033;DHT22;4551;53.164;8.210;2023-08-20T08:06:59;19.50;99.90
9033;DHT22;4551;53.164;8.210;2023-08-20T08:09:27;19.60;99.90
9033;DHT22;4551;53.164;8.210;2023-08-20T08:11:55;19.60;99.90
9033;DHT22;4551;53.164;8.210;2023-08-20T08:14:24;19.70;99.90
9033;DHT22;4551;53.164;8.210;2023-08-20T08:16:52;19.80;99.90
9033;DHT22;4551;53.164;8.210;2023-08-20T08:19:21;19.80;99.90
9033;DHT22;4551;53.164;8.210;2023-08-20T08:21:50;19.90;99.90
9033;DHT22;4551;53.164;8.210;2023-08-20T08:24:17;19.90;99.90
9033;DHT22;4551;53.164;8.210;2023-08-20T08:26:46;20.00;99.90
9033;DHT22;4551;53.164;8.210;2023-08-20T08:29:14;20.00;99.90
9033;DHT22;4551;53.164;8.210;2023-08-20T08:31:42;20.00;99.90
9033;DHT22;4551;53.164;8.210;2023-08-20T08:34:10;20.00;99.90
9033;DHT22;4551;53.164;8.210;2023-08-20T08:36:39;20.10;99.90
9033;DHT22;4551;53.164;8.210;2023-08-20T08:39:07;20.20;99.90
9033;DHT22;4551;53.164;8.210;2023-08-20T08:41:35;20.20;99.90
9033;DHT22;4551;53.164;8.210;2023-08-20T08:44:06;20.30;99.90
9033;DHT22;4551;53.164;8.210;2023-08-20T08:46:35;20.30;99.90
9033;DHT22;4551;53.164;8.210;2023-08-20T08:49:04;20.40;99.90
9033;DHT22;4551;53.164;8.210;2023-08-20T08:51:32;20.50;99.90
9033;DHT22;4551;53.164;8.210;2023-08-20T08:54:03;20.50;99.90
9033;DHT22;4551;53.164;8.210;2023-08-20T08:56:31;20.60;99.90
9033;DHT22;4551;53.164;8.210;2023-08-20T08:58:59;20.70;99.90
9033;DHT22;4551;53.164;8.210;2023-08-20T09:01:28;20.70;99.90
9033;DHT22;4551;53.164;8.210;2023-08-20T09:04:00;20.80;99.90
9033;DHT22;4551;53.164;8.210;2023-08-20T09:06:28;20.70;99.90
9033;DHT22;4551;53.164;8.210;2023-08-20T09:09:13;20.80;99.90
9033;DHT22;4551;53.164;8.210;2023-08-20T09:11:41;20.80;99.90
9033;DHT22;4551;53.164;8.210;2023-08-20T09:14:11;20.80;99.90
9033;DHT22;4551;53.164;8.210;2023-08-20T09:16:50;20.90;99.90
9033;DHT22;4551;53.164;8.210;2023-08-20T09:19:21;20.90;99.90
9033;DHT22;4551;53.164;8.210;2023-08-20T09:21:49;20.90;99.90
9033;DHT22;4551;53.164;8.210;2023-08-20T09:24:26;20.90;99.90
9033;DHT22;4551;53.164;8.210;2023-08-20T09:26:59;21.00;99.90
9033;DHT22;4551;53.164;8.210;2023-08-20T09:29:28;21.00;99.90
9033;DHT22;4551;53.164;8.210;2023-08-20T09:32:02;21.10;99.90
9033;DHT22;4551;53.164;8.210;2023-08-20T09:34:37;21.20;99.90
9033;DHT22;4551;53.164;8.210;2023-08-20T09:37:09;21.20;99.90
9033;DHT22;4551;53.164;8.210;2023-08-20T09:39:39;21.20;99.90
9033;DHT22;4551;53.164;8.210;2023-08-20T09:42:07;21.20;99.90
9033;DHT22;4551;53.164;8.210;2023-08-20T09:44:36;21.30;99.90
9033;DHT22;4551;53.164;8.210;2023-08-20T09:47:06;21.30;99.90
9033;DHT22;4551;53.164;8.210;2023-08-20T09:49:36;21.40;99.90
9033;DHT22;4551;53.164;8.210;2023-08-20T09:52:05;21.40;99.90
9033;DHT22;4551;53.164;8.210;2023-08-20T09:54:36;21.40;99.90
9033;DHT22;4551;53.164;8.210;2023-08-20T09:57:10;21.50;99.90
9033;DHT22;4551;53.164;8.210;2023-08-20T09:59:40;21.60;99.90
9033;DHT22;4551;53.164;8.210;2023-08-20T10:02:09;21.60;99.90
9033;DHT22;4551;53.164;8.210;2023-08-20T10:04:39;21.70;99.90
9033;DHT22;4551;53.164;8.210;2023-08-20T10:07:08;21.70;99.90
9033;DHT22;4551;53.164;8.210;2023-08-20T10:09:37;21.80;99.90
9033;DHT22;4551;53.164;8.210;2023-08-20T10:12:11;21.80;99.90
9033;DHT22;4551;53.164;8.210;2023-08-20T10:14:39;21.90;99.90
9033;DHT22;4551;53.164;8.210;2023-08-20T10:17:07;22.00;99.90
9033;DHT22;4551;53.164;8.210;2023-08-20T10:19:36;22.00;99.90
9033;DHT22;4551;53.164;8.210;2023-08-20T10:22:04;22.10;99.90
9033;DHT22;4551;53.164;8.210;2023-08-20T10:24:39;22.20;99.90
9033;DHT22;4551;53.164;8.210;2023-08-20T10:27:08;22.20;99.90
9033;DHT22;4551;53.164;8.210;2023-08-20T10:29:38;22.30;99.90
9033;DHT22;4551;53.164;8.210;2023-08-20T10:32:08;22.40;99.90
9033;DHT22;4551;53.164;8.210;2023-08-20T10:34:37;22.40;99.90
9033;DHT22;4551;53.164;8.210;2023-08-20T10:37:10;22.50;99.90
9033;DHT22;4551;53.164;8.210;2023-08-20T10:39:38;22.50;99.90
9033;DHT22;4551;53.164;8.210;2023-08-20T10:42:21;22.50;99.90
9033;DHT22;4551;53.164;8.210;2023-08-20T10:44:57;22.60;99.90
9033;DHT22;4551;53.164;8.210;2023-08-20T10:47:29;22.60;99.90
9033;DHT22;4551;53.164;8.210;2023-08-20T10:50:03;22.60;99.90
9033;DHT22;4551;53.164;8.210;2023-08-20T10:52:31;22.70;99.90
9033;DHT22;4551;53.164;8.210;2023-08-20T10:54:59;22.70;99.90
9033;DHT22;4551;53.164;8.210;2023-08-20T10:57:34;22.70;99.90
9033;DHT22;4551;53.164;8.210;2023-08-20T11:00:04;22.80;99.90
9033;DHT22;4551;53.164;8.210;2023-08-20T11:02:38;22.80;99.90
9033;DHT22;4551;53.164;8.210;2023-08-20T11:05:15;22.90;99.90
9033;DHT22;4551;53.164;8.210;2023-08-20T11:07:45;22.90;99.90
9033;DHT22;4551;53.164;8.210;2023-08-20T11:10:13;22.90;99.90
9033;DHT22;4551;53.164;8.210;2023-08-20T11:12:41;22.90;99.90
9033;DHT22;4551;53.164;8.210;2023-08-20T11:15:11;22.90;99.90
9033;DHT22;4551;53.164;8.210;2023-08-20T11:17:40;22.80;99.90
9033;DHT22;4551;53.164;8.210;2023-08-20T11:20:08;22.80;99.90
9033;DHT22;4551;53.164;8.210;2023-08-20T11:22:37;22.90;99.90
9033;DHT22;4551;53.164;8.210;2023-08-20T11:25:05;23.00;99.90
9033;DHT22;4551;53.164;8.210;2023-08-20T11:27:33;23.10;99.90
9033;DHT22;4551;53.164;8.210;2023-08-20T11:30:03;23.10;99.90
9033;DHT22;4551;53.164;8.210;2023-08-20T11:32:32;23.20;99.90
9033;DHT22;4551;53.164;8.210;2023-08-20T11:35:01;23.40;99.90
9033;DHT22;4551;53.164;8.210;2023-08-20T11:37:29;23.40;99.90
9033;DHT22;4551;53.164;8.210;2023-08-20T11:39:57;23.50;99.90
9033;DHT22;4551;53.164;8.210;2023-08-20T11:42:25;23.60;99.90
9033;DHT22;4551;53.164;8.210;2023-08-20T11:44:55;23.70;99.90
9033;DHT22;4551;53.164;8.210;2023-08-20T11:47:23;23.80;99.90
9033;DHT22;4551;53.164;8.210;2023-08-20T11:50:03;23.90;99.90
9033;DHT22;4551;53.164;8.210;2023-08-20T11:52:31;23.90;99.90
9033;DHT22;4551;53.164;8.210;2023-08-20T11:55:00;24.00;99.90
9033;DHT22;4551;53.164;8.210;2023-08-20T11:57:28;24.20;99.90
9033;DHT22;4551;53.164;8.210;2023-08-20T11:59:59;24.20;99.90
9033;DHT22;4551;53.164;8.210;2023-08-20T12:02:30;24.20;99.90
9033;DHT22;4551;53.164;8.210;2023-08-20T12:05:08;24.20;99.90
9033;DHT22;4551;53.164;8.210;2023-08-20T12:07:36;24.30;99.90
9033;DHT22;4551;53.164;8.210;2023-08-20T12:10:18;24.30;99.90
9033;DHT22;4551;53.164;8.210;2023-08-20T12:12:47;24.30;99.90
9033;DHT22;4551;53.164;8.210;2023-08-20T12:15:15;24.40;99.90
9033;DHT22;4551;53.164;8.210;2023-08-20T12:17:43;24.50;99.90
9033;DHT22;4551;53.164;8.210;2023-08-20T12:20:13;24.50;99.90
9033;DHT22;4551;53.164;8.210;2023-08-20T12:22:41;24.50;99.90
9033;DHT22;4551;53.164;8.210;2023-08-20T12:25:09;24.60;99.90
9033;DHT22;4551;53.164;8.210;2023-08-20T12:27:38;24.60;99.90
9033;DHT22;4551;53.164;8.210;2023-08-20T12:30:07;24.70;99.90
9033;DHT22;4551;53.164;8.210;2023-08-20T12:32:35;24.70;99.90
9033;DHT22;4551;53.164;8.210;2023-08-20T12:35:04;24.80;99.90
9033;DHT22;4551;53.164;8.210;2023-08-20T12:37:34;24.90;99.90
9033;DHT22;4551;53.164;8.210;2023-08-20T12:40:04;25.00;99.90
9033;DHT22;4551;53.164;8.210;2023-08-20T12:42:37;25.00;99.90
9033;DHT22;4551;53.164;8.210;2023-08-20T12:45:08;25.10;99.90
9033;DHT22;4551;53.164;8.210;2023-08-20T12:47:37;25.20;99.90
9033;DHT22;4551;53.164;8.210;2023-08-20T12:50:06;25.20;99.90
9033;DHT22;4551;53.164;8.210;2023-08-20T12:52:35;25.20;99.90
9033;DHT22;4551;53.164;8.210;2023-08-20T12:55:03;25.20;99.90
9033;DHT22;4551;53.164;8.210;2023-08-20T12:57:33;25.30;99.90
9033;DHT22;4551;53.164;8.210;2023-08-20T13:00:02;25.40;99.90
9033;DHT22;4551;53.164;8.210;2023-08-20T13:02:34;25.50;99.90
9033;DHT22;4551;53.164;8.210;2023-08-20T13:05:02;25.60;99.90
9033;DHT22;4551;53.164;8.210;2023-08-20T13:07:32;25.70;99.90
9033;DHT22;4551;53.164;8.210;2023-08-20T13:10:02;25.70;99.90
9033;DHT22;4551;53.164;8.210;2023-08-20T13:12:30;25.80;99.90
9033;DHT22;4551;53.164;8.210;2023-08-20T13:15:00;25.90;99.90
9033;DHT22;4551;53.164;8.210;2023-08-20T13:17:30;25.90;99.90
9033;DHT22;4551;53.164;8.210;2023-08-20T13:19:58;26.10;99.90
9033;DHT22;4551;53.164;8.210;2023-08-20T13:22:27;26.20;99.90
9033;DHT22;4551;53.164;8.210;2023-08-20T13:24:55;26.50;99.90
9033;DHT22;4551;53.164;8.210;2023-08-20T13:27:24;26.40;99.90
9033;DHT22;4551;53.164;8.210;2023-08-20T13:29:52;26.50;99.90
9033;DHT22;4551;53.164;8.210;2023-08-20T13:32:20;26.60;99.90
9033;DHT22;4551;53.164;8.210;2023-08-20T13:34:48;26.70;99.90
9033;DHT22;4551;53.164;8.210;2023-08-20T13:37:16;26.80;99.90
9033;DHT22;4551;53.164;8.210;2023-08-20T13:39:45;26.90;99.90
9033;DHT22;4551;53.164;8.210;2023-08-20T13:42:13;27.10;99.90
9033;DHT22;4551;53.164;8.210;2023-08-20T13:44:42;27.20;99.90
9033;DHT22;4551;53.164;8.210;2023-08-20T13:47:10;27.40;99.90
9033;DHT22;4551;53.164;8.210;2023-08-20T13:49:38;27.60;99.90
9033;DHT22;4551;53.164;8.210;2023-08-20T13:52:06;27.70;99.90
9033;DHT22;4551;53.164;8.210;2023-08-20T13:54:34;27.60;99.90
9033;DHT22;4551;53.164;8.210;2023-08-20T13:57:02;27.50;99.90
9033;DHT22;4551;53.164;8.210;2023-08-20T13:59:31;27.60;99.90
9033;DHT22;4551;53.164;8.210;2023-08-20T14:02:00;27.80;99.90
9033;DHT22;4551;53.164;8.210;2023-08-20T14:04:29;28.10;99.90
9033;DHT22;4551;53.164;8.210;2023-08-20T14:06:57;28.20;99.90
9033;DHT22;4551;53.164;8.210;2023-08-20T14:09:25;28.50;99.90
9033;DHT22;4551;53.164;8.210;2023-08-20T14:11:53;28.90;99.90
9033;DHT22;4551;53.164;8.210;2023-08-20T14:14:21;29.10;99.90
9033;DHT22;4551;53.164;8.210;2023-08-20T14:16:49;29.40;99.90
9033;DHT22;4551;53.164;8.210;2023-08-20T14:19:18;29.60;99.90
9033;DHT22;4551;53.164;8.210;2023-08-20T14:21:47;29.60;99.90
9033;DHT22;4551;53.164;8.210;2023-08-20T14:24:15;29.80;99.90
9033;DHT22;4551;53.164;8.210;2023-08-20T14:26:45;29.70;99.90
9033;DHT22;4551;53.164;8.210;2023-08-20T14:29:15;29.90;99.90
9033;DHT22;4551;53.164;8.210;2023-08-20T14:31:43;29.70;99.90
9033;DHT22;4551;53.164;8.210;2023-08-20T14:34:11;29.70;99.90
9033;DHT22;4551;53.164;8.210;2023-08-20T14:36:40;30.20;99.90
9033;DHT22;4551;53.164;8.210;2023-08-20T14:39:09;30.50;99.90
9033;DHT22;4551;53.164;8.210;2023-08-20T14:41:37;30.40;99.90
9033;DHT22;4551;53.164;8.210;2023-08-20T14:44:05;30.70;99.90
9033;DHT22;4551;53.164;8.210;2023-08-20T14:46:33;30.80;99.90
9033;DHT22;4551;53.164;8.210;2023-08-20T14:49:01;30.90;99.90
9033;DHT22;4551;53.164;8.210;2023-08-20T14:51:29;30.80;99.90
9033;DHT22;4551;53.164;8.210;2023-08-20T14:53:58;30.90;99.90
9033;DHT22;4551;53.164;8.210;2023-08-20T14:56:26;31.20;99.90
9033;DHT22;4551;53.164;8.210;2023-08-20T14:58:54;31.20;99.90
9033;DHT22;4551;53.164;8.210;2023-08-20T15:01:22;31.40;99.90
9033;DHT22;4551;53.164;8.210;2023-08-20T15:03:51;31.70;99.90
9033;DHT22;4551;53.164;8.210;2023-08-20T15:06:19;31.70;99.90
9033;DHT22;4551;53.164;8.210;2023-08-20T15:08:49;31.90;99.90
9033;DHT22;4551;53.164;8.210;2023-08-20T15:11:18;31.90;99.90
9033;DHT22;4551;53.164;8.210;2023-08-20T15:13:46;32.00;99.90
9033;DHT22;4551;53.164;8.210;2023-08-20T15:16:14;31.60;99.90
9033;DHT22;4551;53.164;8.210;2023-08-20T15:18:42;31.20;99.90
9033;DHT22;4551;53.164;8.210;2023-08-20T15:21:10;30.90;99.90
9033;DHT22;4551;53.164;8.210;2023-08-20T15:23:38;30.70;99.90
9033;DHT22;4551;53.164;8.210;2023-08-20T15:26:06;30.90;99.90
9033;DHT22;4551;53.164;8.210;2023-08-20T15:28:36;30.90;99.90
9033;DHT22;4551;53.164;8.210;2023-08-20T15:31:04;31.00;99.90
9033;DHT22;4551;53.164;8.210;2023-08-20T15:33:32;31.50;99.90
9033;DHT22;4551;53.164;8.210;2023-08-20T15:36:00;31.80;99.90
9033;DHT22;4551;53.164;8.210;2023-08-20T15:38:28;31.50;99.90
9033;DHT22;4551;53.164;8.210;2023-08-20T15:40:56;31.00;99.90
9033;DHT22;4551;53.164;8.210;2023-08-20T15:43:25;30.90;99.90
9033;DHT22;4551;53.164;8.210;2023-08-20T15:45:55;31.00;99.90
9033;DHT22;4551;53.164;8.210;2023-08-20T15:48:23;31.10;99.90
9033;DHT22;4551;53.164;8.210;2023-08-20T15:50:51;30.90;99.90
9033;DHT22;4551;53.164;8.210;2023-08-20T15:53:19;30.80;99.90
9033;DHT22;4551;53.164;8.210;2023-08-20T15:55:47;30.90;99.90
9033;DHT22;4551;53.164;8.210;2023-08-20T15:58:15;30.70;99.90
9033;DHT22;4551;53.164;8.210;2023-08-20T16:00:43;30.30;99.90
9033;DHT22;4551;53.164;8.210;2023-08-20T16:03:13;30.10;99.90
9033;DHT22;4551;53.164;8.210;2023-08-20T16:05:41;30.00;99.90
9033;DHT22;4551;53.164;8.210;2023-08-20T16:08:09;29.90;99.90
9033;DHT22;4551;53.164;8.210;2023-08-20T16:10:37;29.80;99.90
9033;DHT22;4551;53.164;8.210;2023-08-20T16:13:06;29.70;99.90